Regal Star — ESCM — position and weather

sailwx.info

Track history (hours):
 
Tides and Currents Weather Stations Pressure Air Temp Water Temp Dewpoint Dewpoint Depression Visibility Wind Speed Wind Dir Waves Ship Positions

Regal Star

Last reported at 2018-Apr-23 16:10 UTC. Time now 2018-Apr-23 17:21 UTC.
Position N 59°22' E 023°59'.

Length 157 m; draft 5.7 m.

Type: Passenger vessel. MMSI: 276554000.

Date/timePositionNaut miles runAvg speedWind from/ knotsBaromVisibWave heightAir tempDewpointWater temp
2018-Apr-23 16:10N 59°22' E 023°59'415.8
2018-Apr-23 15:55N 59°23' E 023°51'816.1
2018-Apr-23 15:26N 59°23' E 023°36'716.2
2018-Apr-23 15:01N 59°23' E 023°22'816.0
2018-Apr-23 14:30N 59°23' E 023°06'815.6
2018-Apr-23 13:59N 59°23' E 022°50'2915.8
2018-Apr-23 12:10N 59°28' E 021°54'315.8
2018-Apr-23 12:00N 59°29' E 021°50'815.7
2018-Apr-23 11:31N 59°31' E 021°35'815.7
2018-Apr-23 11:00N 59°34' E 021°20'815.7
2018-Apr-23 10:30N 59°36' E 021°05'4415.6
2018-Apr-23 07:42N 59°45' E 019°40'315.9
2018-Apr-23 07:31N 59°45' E 019°35'815.7
2018-Apr-23 07:01N 59°45' E 019°19'714.4
2018-Apr-23 06:30N 59°43' E 019°05'1 1.2
2018-Apr-23 05:58N 59°43' E 019°04'0 0.0
2018-Apr-23 05:28N 59°43' E 019°04'0 0.0
2018-Apr-23 04:58N 59°43' E 019°04'0 0.0
2018-Apr-23 04:30N 59°43' E 019°04'3 6.0
2018-Apr-23 04:00N 59°44' E 019°10'714.6
2018-Apr-23 03:31N 59°46' E 019°23'713.9
2018-Apr-23 03:00N 59°45' E 019°37'815.1
2018-Apr-23 02:30N 59°42' E 019°51'3916.1
2018-Apr-23 00:07N 59°30' E 021°04'216.3
2018-Apr-23 00:00N 59°30' E 021°07'816.3
2018-Apr-22 23:30N 59°28' E 021°23'816.2
2018-Apr-22 23:00N 59°26' E 021°38'59 6.6
2018-Apr-22 14:05N 59°26' E 023°34'116.0
2018-Apr-22 14:00N 59°27' E 023°32'816.3
2018-Apr-22 13:30N 59°29' E 023°17'816.5
2018-Apr-22 13:00N 59°32' E 023°02'816.6
2018-Apr-22 12:30N 59°35' E 022°46'916.3
2018-Apr-22 11:57N 59°35' E 022°29'716.5
2018-Apr-22 11:30N 59°35' E 022°14'816.5
2018-Apr-22 11:00N 59°35' E 021°58'816.5
2018-Apr-22 10:30N 59°35' E 021°41'816.4
2018-Apr-22 10:00N 59°34' E 021°25'816.2
2018-Apr-22 09:30N 59°36' E 021°09'4616.1
2018-Apr-22 06:38N 59°45' E 019°39'216.7
2018-Apr-22 06:30N 59°45' E 019°35'816.1
2018-Apr-22 06:00N 59°45' E 019°19'714.1
2018-Apr-22 05:30N 59°43' E 019°06'1 1.8
2018-Apr-22 05:00N 59°43' E 019°04'0 0.0
2018-Apr-22 04:30N 59°43' E 019°04'2 4.6
2018-Apr-22 04:00N 59°44' E 019°08'714.3
2018-Apr-22 03:30N 59°46' E 019°22'612.1
2018-Apr-22 03:00N 59°47' E 019°34'713.4
2018-Apr-22 02:30N 59°47' E 019°47'4014.0
2018-Apr-21 23:39N 59°38' E 021°04'214.8
2018-Apr-21 23:31N 59°38' E 021°08'815.1
2018-Apr-21 23:00N 59°36' E 021°23'816.1
2018-Apr-21 22:30N 59°35' E 021°39'815.9
2018-Apr-21 22:00N 59°34' E 021°54'816.0
2018-Apr-21 21:30N 59°33' E 022°10'816.1
2018-Apr-21 21:00N 59°33' E 022°26'1916.0
2018-Apr-21 19:48N 59°29' E 023°03'715.9
2018-Apr-21 19:21N 59°28' E 023°17'715.8
2018-Apr-21 18:54N 59°26' E 023°30'1 0.1
2018-Apr-21 03:53N 59°26' E 023°32'614.0
2018-Apr-21 03:28N 59°28' E 023°21'814.2
2018-Apr-21 02:55N 59°30' E 023°07'614.1
2018-Apr-21 02:30N 59°33' E 022°56'1714.1
2018-Apr-21 01:20N 59°35' E 022°24'514.5
2018-Apr-21 01:00N 59°35' E 022°15'814.4
2018-Apr-21 00:27N 59°35' E 021°59'714.9
2018-Apr-21 00:00N 59°35' E 021°46'815.9
2018-Apr-20 23:30N 59°34' E 021°30'815.7
2018-Apr-20 23:00N 59°35' E 021°15'815.9
2018-Apr-20 22:30N 59°37' E 020°59'1016.0
2018-Apr-20 21:55N 59°40' E 020°41'3215.5
2018-Apr-20 19:51N 59°45' E 019°39'516.0
2018-Apr-20 19:31N 59°46' E 019°28'815.5
2018-Apr-20 19:01N 59°44' E 019°13'5 8.5
2018-Apr-20 18:28N 59°43' E 019°04'0 0.0
2018-Apr-20 17:58N 59°43' E 019°04'0 0.0
2018-Apr-20 17:28N 59°43' E 019°04'0 0.0
2018-Apr-20 16:58N 59°43' E 019°04'0 0.0
2018-Apr-20 16:28N 59°43' E 019°04'0 0.0
2018-Apr-20 15:58N 59°43' E 019°04'0 0.0
2018-Apr-20 15:28N 59°43' E 019°04'0 0.0
2018-Apr-20 14:58N 59°43' E 019°04'0 0.0
2018-Apr-20 14:28N 59°43' E 019°04'0 0.0
2018-Apr-20 13:58N 59°43' E 019°04'0 0.0
2018-Apr-20 13:28N 59°43' E 019°04'0 0.0
2018-Apr-20 12:58N 59°43' E 019°04'0 0.0
2018-Apr-20 12:28N 59°43' E 019°04'0 0.0
2018-Apr-20 11:58N 59°43' E 019°04'0 0.0
2018-Apr-20 11:28N 59°43' E 019°04'0 0.0
2018-Apr-20 10:58N 59°43' E 019°04'0 0.0
2018-Apr-20 10:28N 59°43' E 019°04'0 0.0
2018-Apr-20 09:58N 59°43' E 019°04'0 0.0
2018-Apr-20 09:28N 59°43' E 019°04'0 0.0
2018-Apr-20 08:58N 59°43' E 019°04'0 0.0
2018-Apr-20 08:28N 59°43' E 019°04'0 0.0
2018-Apr-20 07:58N 59°43' E 019°04'0 0.0
2018-Apr-20 07:28N 59°43' E 019°04'0 0.0
2018-Apr-20 06:58N 59°43' E 019°04'0 0.0
2018-Apr-20 06:28N 59°43' E 019°04'0 0.0
2018-Apr-20 05:58N 59°43' E 019°04'0 0.0
2018-Apr-20 05:28N 59°43' E 019°04'0 0.0
2018-Apr-20 04:58N 59°43' E 019°04'0 0.0
2018-Apr-20 04:30N 59°43' E 019°04'3 5.1
2018-Apr-20 04:00N 59°44' E 019°09'713.5
2018-Apr-20 03:30N 59°46' E 019°22'713.5
2018-Apr-20 03:00N 59°45' E 019°35'714.4
2018-Apr-20 02:30N 59°43' E 019°49'714.4
2018-Apr-20 02:00N 59°39' E 020°01'3314.6
2018-Apr-19 23:44N 59°30' E 021°04'416.2
2018-Apr-19 23:30N 59°29' E 021°11'816.2
2018-Apr-19 23:00N 59°27' E 021°26'816.2
2018-Apr-19 22:30N 59°26' E 021°42'816.1
2018-Apr-19 22:00N 59°24' E 021°57'4015.9
2018-Apr-19 19:29N 59°21' E 023°15'4 0.3
2018-Apr-19 03:56N 59°23' E 023°24'4816.4
2018-Apr-19 01:00N 59°29' E 021°49'816.6
2018-Apr-19 00:31N 59°31' E 021°34'816.7
2018-Apr-19 00:01N 59°33' E 021°18'816.8
2018-Apr-18 23:31N 59°36' E 021°02'4316.4
2018-Apr-18 20:55N 59°45' E 019°40'716.7
2018-Apr-18 20:31N 59°46' E 019°27'816.0
2018-Apr-18 20:00N 59°44' E 019°11'4 7.3
2018-Apr-18 19:29N 59°43' E 019°04'0 0.0
2018-Apr-18 18:59N 59°43' E 019°04'0 0.0
2018-Apr-18 18:29N 59°43' E 019°04'0 0.0
2018-Apr-18 17:59N 59°43' E 019°04'0 0.0
2018-Apr-18 17:29N 59°43' E 019°04'0 0.0
2018-Apr-18 16:59N 59°43' E 019°04'0 0.0
2018-Apr-18 16:29N 59°43' E 019°04'0 0.0
2018-Apr-18 15:59N 59°43' E 019°04'0 0.0
2018-Apr-18 15:29N 59°43' E 019°04'0 0.0
2018-Apr-18 14:59N 59°43' E 019°04'0 0.0
2018-Apr-18 14:29N 59°43' E 019°04'0 0.0
2018-Apr-18 13:59N 59°43' E 019°04'0 0.0
2018-Apr-18 13:26N 59°43' E 019°04'0 0.0
2018-Apr-18 12:59N 59°43' E 019°04'0 0.0
2018-Apr-18 12:29N 59°43' E 019°04'0 0.0
2018-Apr-18 11:59N 59°43' E 019°04'0 0.0
2018-Apr-18 11:29N 59°43' E 019°04'0 0.0
2018-Apr-18 10:59N 59°43' E 019°04'0 0.0
2018-Apr-18 10:29N 59°43' E 019°04'0 0.0
2018-Apr-18 09:59N 59°43' E 019°04'0 0.0
2018-Apr-18 09:29N 59°43' E 019°04'0 0.0
2018-Apr-18 08:59N 59°43' E 019°04'0 0.0
2018-Apr-18 08:29N 59°43' E 019°04'0 0.0
2018-Apr-18 07:59N 59°43' E 019°04'0 0.0
2018-Apr-18 07:29N 59°43' E 019°04'0 0.0
2018-Apr-18 06:59N 59°43' E 019°04'0 0.0
2018-Apr-18 06:29N 59°43' E 019°04'1 2.2
2018-Apr-18 06:00N 59°43' E 019°06'714.8
2018-Apr-18 05:31N 59°46' E 019°20'714.6
2018-Apr-18 05:01N 59°45' E 019°35'814.8
2018-Apr-18 04:30N 59°43' E 019°49'714.6
2018-Apr-18 04:01N 59°39' E 020°01'3114.9
2018-Apr-18 01:55N 59°31' E 021°00'615.2
2018-Apr-18 01:30N 59°29' E 021°12'815.3
2018-Apr-18 01:01N 59°28' E 021°27'815.2
2018-Apr-18 00:31N 59°26' E 021°41'57 6.6
2018-Apr-17 15:53N 59°23' E 023°33'1116.5
2018-Apr-17 15:12N 59°23' E 023°11'3016.7
2018-Apr-17 13:24N 59°26' E 022°12'1216.8
2018-Apr-17 12:41N 59°29' E 021°49'316.6
2018-Apr-17 12:31N 59°30' E 021°44'816.5
2018-Apr-17 12:01N 59°32' E 021°28'816.6
2018-Apr-17 11:30N 59°35' E 021°13'1816.6
2018-Apr-17 10:27N 59°40' E 020°39'2616.2
2018-Apr-17 08:51N 59°45' E 019°49'616.7
2018-Apr-17 08:31N 59°45' E 019°37'816.4
2018-Apr-17 08:00N 59°46' E 019°21'815.4
2018-Apr-17 07:30N 59°43' E 019°06'1 0.7
2018-Apr-17 05:47N 59°43' E 019°04'0 0.5
2018-Apr-17 05:31N 59°43' E 019°04'610.2
2018-Apr-17 04:58N 59°45' E 019°15'612.8
2018-Apr-17 04:28N 59°46' E 019°27'613.0
2018-Apr-17 04:00N 59°45' E 019°39'712.9
2018-Apr-17 03:29N 59°42' E 019°52'713.6
2018-Apr-17 02:58N 59°39' E 020°03'3115.1
2018-Apr-17 00:54N 59°31' E 021°02'615.8
2018-Apr-17 00:30N 59°29' E 021°15'815.9
2018-Apr-17 00:01N 59°27' E 021°30'815.7
2018-Apr-16 23:30N 59°26' E 021°45'815.9
2018-Apr-16 23:01N 59°25' E 022°00'815.6
2018-Apr-16 22:31N 59°24' E 022°16'815.5
2018-Apr-16 22:00N 59°20' E 022°29'815.5
2018-Apr-16 21:30N 59°20' E 022°44'1015.7
2018-Apr-16 20:51N 59°21' E 023°04'29 6.2
2018-Apr-16 16:04N 59°20' E 024°02'214.9
2018-Apr-16 15:55N 59°22' E 023°59'5816.1
2018-Apr-16 12:19N 59°27' E 022°05'516.6
2018-Apr-16 11:59N 59°28' E 021°55'816.6
2018-Apr-16 11:30N 59°31' E 021°40'816.5
2018-Apr-16 11:00N 59°33' E 021°24'816.6
2018-Apr-16 10:30N 59°35' E 021°09'4616.3
2018-Apr-16 07:43N 59°45' E 019°40'316.6
2018-Apr-16 07:30N 59°45' E 019°34'816.2
2018-Apr-16 07:00N 59°45' E 019°18'713.9
2018-Apr-16 06:30N 59°43' E 019°04'0 0.2
2018-Apr-16 06:00N 59°43' E 019°04'0 0.0
2018-Apr-16 05:30N 59°43' E 019°04'0 0.0
2018-Apr-16 05:00N 59°43' E 019°04'0 0.1
2018-Apr-16 04:30N 59°43' E 019°04'3 6.8
2018-Apr-16 04:00N 59°44' E 019°11'714.8
2018-Apr-16 03:31N 59°46' E 019°25'714.1
2018-Apr-16 03:00N 59°45' E 019°38'814.5
2018-Apr-16 02:29N 59°42' E 019°53'3916.0
2018-Apr-16 00:04N 59°30' E 021°05'116.5
2018-Apr-16 00:00N 59°30' E 021°07'816.6
2018-Apr-15 23:30N 59°28' E 021°23'816.6
2018-Apr-15 23:00N 59°26' E 021°39'15 1.3
2018-Apr-15 11:21N 59°26' E 022°08'616.5
2018-Apr-15 11:00N 59°28' E 021°57'816.5
2018-Apr-15 10:30N 59°30' E 021°42'816.3
2018-Apr-15 10:00N 59°33' E 021°27'816.3
2018-Apr-15 09:30N 59°35' E 021°11'4016.0
2018-Apr-15 07:01N 59°45' E 019°55'016.7
2018-Apr-15 07:00N 59°45' E 019°54'816.5
2018-Apr-15 06:30N 59°45' E 019°38'816.4
2018-Apr-15 06:00N 59°46' E 019°22'815.8
2018-Apr-15 05:30N 59°43' E 019°07'1 2.1
2018-Apr-15 04:51N 59°43' E 019°04'0 0.0
2018-Apr-15 04:30N 59°43' E 019°04'2 4.1
2018-Apr-15 04:00N 59°44' E 019°08'714.5
2018-Apr-15 03:30N 59°46' E 019°22'713.3
2018-Apr-15 03:00N 59°45' E 019°35'713.7
2018-Apr-15 02:30N 59°43' E 019°48'713.6
2018-Apr-15 02:00N 59°40' E 019°59'713.5
2018-Apr-15 01:30N 59°37' E 020°11'2614.5
2018-Apr-14 23:44N 59°31' E 021°01'415.9
2018-Apr-14 23:31N 59°30' E 021°07'815.9
2018-Apr-14 23:00N 59°28' E 021°23'816.0
2018-Apr-14 22:30N 59°26' E 021°38'815.9
2018-Apr-14 22:00N 59°24' E 021°53'4115.7
2018-Apr-14 19:24N 59°21' E 023°13'716.2
2018-Apr-14 18:59N 59°22' E 023°26'816.4
2018-Apr-14 18:29N 59°22' E 023°42'816.5
2018-Apr-14 18:00N 59°22' E 023°58'4 0.3
2018-Apr-14 05:19N 59°20' E 024°04'412.8
2018-Apr-14 05:00N 59°22' E 023°58'713.9
2018-Apr-14 04:30N 59°23' E 023°44'714.1
2018-Apr-14 04:01N 59°23' E 023°31'714.4
2018-Apr-14 03:31N 59°23' E 023°17'714.5
2018-Apr-14 03:01N 59°23' E 023°02'714.7
2018-Apr-14 02:30N 59°23' E 022°48'1114.9
2018-Apr-14 01:45N 59°24' E 022°26'415.6
2018-Apr-14 01:31N 59°25' E 022°19'815.3
2018-Apr-14 01:00N 59°27' E 022°04'815.5
2018-Apr-14 00:31N 59°29' E 021°50'815.5
2018-Apr-14 00:00N 59°31' E 021°35'815.7
2018-Apr-13 23:30N 59°34' E 021°20'815.9
2018-Apr-13 23:01N 59°36' E 021°05'1315.9
2018-Apr-13 22:11N 59°39' E 020°40'315.9
2018-Apr-13 22:01N 59°40' E 020°35'815.8
2018-Apr-13 21:29N 59°44' E 020°21'1115.9
2018-Apr-13 20:48N 59°45' E 019°59'515.8
2018-Apr-13 20:29N 59°45' E 019°49'816.0
2018-Apr-13 20:00N 59°45' E 019°34'815.7
2018-Apr-13 19:30N 59°45' E 019°18'714.3
2018-Apr-13 19:01N 59°43' E 019°05'0 0.7
2018-Apr-13 18:29N 59°43' E 019°04'0 0.0
2018-Apr-13 17:59N 59°43' E 019°04'0 0.0
2018-Apr-13 17:29N 59°43' E 019°04'0 0.0
2018-Apr-13 16:59N 59°43' E 019°04'0 0.0
2018-Apr-13 16:29N 59°43' E 019°04'  
Track history (hours):
 
Tides and Currents Weather Stations Pressure Air Temp Water Temp Dewpoint Dewpoint Depression Visibility Wind Speed Wind Dir Waves Ship Positions

Regal Star

Last reported at 2018-Apr-23 16:10 UTC. Time now 2018-Apr-23 17:21 UTC.
Position N 59°22' E 023°59'.

Length 157 m; draft 5.7 m.

Type: Passenger vessel. MMSI: 276554000.

Date/timePositionNaut miles runAvg speedWind from/ knotsBaromVisibWave heightAir tempDewpointWater temp
2018-Apr-23 16:10N 59°22' E 023°59'415.8
2018-Apr-23 15:55N 59°23' E 023°51'816.1
2018-Apr-23 15:26N 59°23' E 023°36'716.2
2018-Apr-23 15:01N 59°23' E 023°22'816.0
2018-Apr-23 14:30N 59°23' E 023°06'815.6
2018-Apr-23 13:59N 59°23' E 022°50'2915.8
2018-Apr-23 12:10N 59°28' E 021°54'315.8
2018-Apr-23 12:00N 59°29' E 021°50'815.7
2018-Apr-23 11:31N 59°31' E 021°35'815.7
2018-Apr-23 11:00N 59°34' E 021°20'815.7
2018-Apr-23 10:30N 59°36' E 021°05'4415.6
2018-Apr-23 07:42N 59°45' E 019°40'315.9
2018-Apr-23 07:31N 59°45' E 019°35'815.7
2018-Apr-23 07:01N 59°45' E 019°19'714.4
2018-Apr-23 06:30N 59°43' E 019°05'1 1.2
2018-Apr-23 05:58N 59°43' E 019°04'0 0.0
2018-Apr-23 05:28N 59°43' E 019°04'0 0.0
2018-Apr-23 04:58N 59°43' E 019°04'0 0.0
2018-Apr-23 04:30N 59°43' E 019°04'3 6.0
2018-Apr-23 04:00N 59°44' E 019°10'714.6
2018-Apr-23 03:31N 59°46' E 019°23'713.9
2018-Apr-23 03:00N 59°45' E 019°37'815.1
2018-Apr-23 02:30N 59°42' E 019°51'3916.1
2018-Apr-23 00:07N 59°30' E 021°04'216.3
2018-Apr-23 00:00N 59°30' E 021°07'816.3
2018-Apr-22 23:30N 59°28' E 021°23'816.2
2018-Apr-22 23:00N 59°26' E 021°38'59 6.6
2018-Apr-22 14:05N 59°26' E 023°34'116.0
2018-Apr-22 14:00N 59°27' E 023°32'816.3
2018-Apr-22 13:30N 59°29' E 023°17'816.5
2018-Apr-22 13:00N 59°32' E 023°02'816.6
2018-Apr-22 12:30N 59°35' E 022°46'916.3
2018-Apr-22 11:57N 59°35' E 022°29'716.5
2018-Apr-22 11:30N 59°35' E 022°14'816.5
2018-Apr-22 11:00N 59°35' E 021°58'816.5
2018-Apr-22 10:30N 59°35' E 021°41'816.4
2018-Apr-22 10:00N 59°34' E 021°25'816.2
2018-Apr-22 09:30N 59°36' E 021°09'4616.1
2018-Apr-22 06:38N 59°45' E 019°39'216.7
2018-Apr-22 06:30N 59°45' E 019°35'816.1
2018-Apr-22 06:00N 59°45' E 019°19'714.1
2018-Apr-22 05:30N 59°43' E 019°06'1 1.8
2018-Apr-22 05:00N 59°43' E 019°04'0 0.0
2018-Apr-22 04:30N 59°43' E 019°04'2 4.6
2018-Apr-22 04:00N 59°44' E 019°08'714.3
2018-Apr-22 03:30N 59°46' E 019°22'612.1
2018-Apr-22 03:00N 59°47' E 019°34'713.4
2018-Apr-22 02:30N 59°47' E 019°47'4014.0
2018-Apr-21 23:39N 59°38' E 021°04'214.8
2018-Apr-21 23:31N 59°38' E 021°08'815.1
2018-Apr-21 23:00N 59°36' E 021°23'816.1
2018-Apr-21 22:30N 59°35' E 021°39'815.9
2018-Apr-21 22:00N 59°34' E 021°54'816.0
2018-Apr-21 21:30N 59°33' E 022°10'816.1
2018-Apr-21 21:00N 59°33' E 022°26'1916.0
2018-Apr-21 19:48N 59°29' E 023°03'715.9
2018-Apr-21 19:21N 59°28' E 023°17'715.8
2018-Apr-21 18:54N 59°26' E 023°30'1 0.1
2018-Apr-21 03:53N 59°26' E 023°32'614.0
2018-Apr-21 03:28N 59°28' E 023°21'814.2
2018-Apr-21 02:55N 59°30' E 023°07'614.1
2018-Apr-21 02:30N 59°33' E 022°56'1714.1
2018-Apr-21 01:20N 59°35' E 022°24'514.5
2018-Apr-21 01:00N 59°35' E 022°15'814.4
2018-Apr-21 00:27N 59°35' E 021°59'714.9
2018-Apr-21 00:00N 59°35' E 021°46'815.9
2018-Apr-20 23:30N 59°34' E 021°30'815.7
2018-Apr-20 23:00N 59°35' E 021°15'815.9
2018-Apr-20 22:30N 59°37' E 020°59'1016.0
2018-Apr-20 21:55N 59°40' E 020°41'3215.5
2018-Apr-20 19:51N 59°45' E 019°39'516.0
2018-Apr-20 19:31N 59°46' E 019°28'815.5
2018-Apr-20 19:01N 59°44' E 019°13'5 8.5
2018-Apr-20 18:28N 59°43' E 019°04'0 0.0
2018-Apr-20 17:58N 59°43' E 019°04'0 0.0
2018-Apr-20 17:28N 59°43' E 019°04'0 0.0
2018-Apr-20 16:58N 59°43' E 019°04'0 0.0
2018-Apr-20 16:28N 59°43' E 019°04'0 0.0
2018-Apr-20 15:58N 59°43' E 019°04'0 0.0
2018-Apr-20 15:28N 59°43' E 019°04'0 0.0
2018-Apr-20 14:58N 59°43' E 019°04'0 0.0
2018-Apr-20 14:28N 59°43' E 019°04'0 0.0
2018-Apr-20 13:58N 59°43' E 019°04'0 0.0
2018-Apr-20 13:28N 59°43' E 019°04'0 0.0
2018-Apr-20 12:58N 59°43' E 019°04'0 0.0
2018-Apr-20 12:28N 59°43' E 019°04'0 0.0
2018-Apr-20 11:58N 59°43' E 019°04'0 0.0
2018-Apr-20 11:28N 59°43' E 019°04'0 0.0
2018-Apr-20 10:58N 59°43' E 019°04'0 0.0
2018-Apr-20 10:28N 59°43' E 019°04'0 0.0
2018-Apr-20 09:58N 59°43' E 019°04'0 0.0
2018-Apr-20 09:28N 59°43' E 019°04'0 0.0
2018-Apr-20 08:58N 59°43' E 019°04'0 0.0
2018-Apr-20 08:28N 59°43' E 019°04'0 0.0
2018-Apr-20 07:58N 59°43' E 019°04'0 0.0
2018-Apr-20 07:28N 59°43' E 019°04'0 0.0
2018-Apr-20 06:58N 59°43' E 019°04'0 0.0
2018-Apr-20 06:28N 59°43' E 019°04'0 0.0
2018-Apr-20 05:58N 59°43' E 019°04'0 0.0
2018-Apr-20 05:28N 59°43' E 019°04'0 0.0
2018-Apr-20 04:58N 59°43' E 019°04'0 0.0
2018-Apr-20 04:30N 59°43' E 019°04'3 5.1
2018-Apr-20 04:00N 59°44' E 019°09'713.5
2018-Apr-20 03:30N 59°46' E 019°22'713.5
2018-Apr-20 03:00N 59°45' E 019°35'714.4
2018-Apr-20 02:30N 59°43' E 019°49'714.4
2018-Apr-20 02:00N 59°39' E 020°01'3314.6
2018-Apr-19 23:44N 59°30' E 021°04'416.2
2018-Apr-19 23:30N 59°29' E 021°11'816.2
2018-Apr-19 23:00N 59°27' E 021°26'816.2
2018-Apr-19 22:30N 59°26' E 021°42'816.1
2018-Apr-19 22:00N 59°24' E 021°57'4015.9
2018-Apr-19 19:29N 59°21' E 023°15'4 0.3
2018-Apr-19 03:56N 59°23' E 023°24'4816.4
2018-Apr-19 01:00N 59°29' E 021°49'816.6
2018-Apr-19 00:31N 59°31' E 021°34'816.7
2018-Apr-19 00:01N 59°33' E 021°18'816.8
2018-Apr-18 23:31N 59°36' E 021°02'4316.4
2018-Apr-18 20:55N 59°45' E 019°40'716.7
2018-Apr-18 20:31N 59°46' E 019°27'816.0
2018-Apr-18 20:00N 59°44' E 019°11'4 7.3
2018-Apr-18 19:29N 59°43' E 019°04'0 0.0
2018-Apr-18 18:59N 59°43' E 019°04'0 0.0
2018-Apr-18 18:29N 59°43' E 019°04'0 0.0
2018-Apr-18 17:59N 59°43' E 019°04'0 0.0
2018-Apr-18 17:29N 59°43' E 019°04'0 0.0
2018-Apr-18 16:59N 59°43' E 019°04'0 0.0
2018-Apr-18 16:29N 59°43' E 019°04'0 0.0
2018-Apr-18 15:59N 59°43' E 019°04'0 0.0
2018-Apr-18 15:29N 59°43' E 019°04'0 0.0
2018-Apr-18 14:59N 59°43' E 019°04'0 0.0
2018-Apr-18 14:29N 59°43' E 019°04'0 0.0
2018-Apr-18 13:59N 59°43' E 019°04'0 0.0
2018-Apr-18 13:26N 59°43' E 019°04'0 0.0
2018-Apr-18 12:59N 59°43' E 019°04'0 0.0
2018-Apr-18 12:29N 59°43' E 019°04'0 0.0
2018-Apr-18 11:59N 59°43' E 019°04'0 0.0
2018-Apr-18 11:29N 59°43' E 019°04'0 0.0
2018-Apr-18 10:59N 59°43' E 019°04'0 0.0
2018-Apr-18 10:29N 59°43' E 019°04'0 0.0
2018-Apr-18 09:59N 59°43' E 019°04'0 0.0
2018-Apr-18 09:29N 59°43' E 019°04'0 0.0
2018-Apr-18 08:59N 59°43' E 019°04'0 0.0
2018-Apr-18 08:29N 59°43' E 019°04'0 0.0
2018-Apr-18 07:59N 59°43' E 019°04'0 0.0
2018-Apr-18 07:29N 59°43' E 019°04'0 0.0
2018-Apr-18 06:59N 59°43' E 019°04'0 0.0
2018-Apr-18 06:29N 59°43' E 019°04'1 2.2
2018-Apr-18 06:00N 59°43' E 019°06'714.8
2018-Apr-18 05:31N 59°46' E 019°20'714.6
2018-Apr-18 05:01N 59°45' E 019°35'814.8
2018-Apr-18 04:30N 59°43' E 019°49'714.6
2018-Apr-18 04:01N 59°39' E 020°01'3114.9
2018-Apr-18 01:55N 59°31' E 021°00'615.2
2018-Apr-18 01:30N 59°29' E 021°12'815.3
2018-Apr-18 01:01N 59°28' E 021°27'815.2
2018-Apr-18 00:31N 59°26' E 021°41'57 6.6
2018-Apr-17 15:53N 59°23' E 023°33'1116.5
2018-Apr-17 15:12N 59°23' E 023°11'3016.7
2018-Apr-17 13:24N 59°26' E 022°12'1216.8
2018-Apr-17 12:41N 59°29' E 021°49'316.6
2018-Apr-17 12:31N 59°30' E 021°44'816.5
2018-Apr-17 12:01N 59°32' E 021°28'816.6
2018-Apr-17 11:30N 59°35' E 021°13'1816.6
2018-Apr-17 10:27N 59°40' E 020°39'2616.2
2018-Apr-17 08:51N 59°45' E 019°49'616.7
2018-Apr-17 08:31N 59°45' E 019°37'816.4
2018-Apr-17 08:00N 59°46' E 019°21'815.4
2018-Apr-17 07:30N 59°43' E 019°06'1 0.7
2018-Apr-17 05:47N 59°43' E 019°04'0 0.5
2018-Apr-17 05:31N 59°43' E 019°04'610.2
2018-Apr-17 04:58N 59°45' E 019°15'612.8
2018-Apr-17 04:28N 59°46' E 019°27'613.0
2018-Apr-17 04:00N 59°45' E 019°39'712.9
2018-Apr-17 03:29N 59°42' E 019°52'713.6
2018-Apr-17 02:58N 59°39' E 020°03'3115.1
2018-Apr-17 00:54N 59°31' E 021°02'615.8
2018-Apr-17 00:30N 59°29' E 021°15'815.9
2018-Apr-17 00:01N 59°27' E 021°30'815.7
2018-Apr-16 23:30N 59°26' E 021°45'815.9
2018-Apr-16 23:01N 59°25' E 022°00'815.6
2018-Apr-16 22:31N 59°24' E 022°16'815.5
2018-Apr-16 22:00N 59°20' E 022°29'815.5
2018-Apr-16 21:30N 59°20' E 022°44'1015.7
2018-Apr-16 20:51N 59°21' E 023°04'29 6.2
2018-Apr-16 16:04N 59°20' E 024°02'214.9
2018-Apr-16 15:55N 59°22' E 023°59'5816.1
2018-Apr-16 12:19N 59°27' E 022°05'516.6
2018-Apr-16 11:59N 59°28' E 021°55'816.6
2018-Apr-16 11:30N 59°31' E 021°40'816.5
2018-Apr-16 11:00N 59°33' E 021°24'816.6
2018-Apr-16 10:30N 59°35' E 021°09'4616.3
2018-Apr-16 07:43N 59°45' E 019°40'316.6
2018-Apr-16 07:30N 59°45' E 019°34'816.2
2018-Apr-16 07:00N 59°45' E 019°18'713.9
2018-Apr-16 06:30N 59°43' E 019°04'0 0.2
2018-Apr-16 06:00N 59°43' E 019°04'0 0.0
2018-Apr-16 05:30N 59°43' E 019°04'0 0.0
2018-Apr-16 05:00N 59°43' E 019°04'0 0.1
2018-Apr-16 04:30N 59°43' E 019°04'3 6.8
2018-Apr-16 04:00N 59°44' E 019°11'714.8
2018-Apr-16 03:31N 59°46' E 019°25'714.1
2018-Apr-16 03:00N 59°45' E 019°38'814.5
2018-Apr-16 02:29N 59°42' E 019°53'3916.0
2018-Apr-16 00:04N 59°30' E 021°05'116.5
2018-Apr-16 00:00N 59°30' E 021°07'816.6
2018-Apr-15 23:30N 59°28' E 021°23'816.6
2018-Apr-15 23:00N 59°26' E 021°39'15 1.3
2018-Apr-15 11:21N 59°26' E 022°08'616.5
2018-Apr-15 11:00N 59°28' E 021°57'816.5
2018-Apr-15 10:30N 59°30' E 021°42'816.3
2018-Apr-15 10:00N 59°33' E 021°27'816.3
2018-Apr-15 09:30N 59°35' E 021°11'4016.0
2018-Apr-15 07:01N 59°45' E 019°55'016.7
2018-Apr-15 07:00N 59°45' E 019°54'816.5
2018-Apr-15 06:30N 59°45' E 019°38'816.4
2018-Apr-15 06:00N 59°46' E 019°22'815.8
2018-Apr-15 05:30N 59°43' E 019°07'1 2.1
2018-Apr-15 04:51N 59°43' E 019°04'0 0.0
2018-Apr-15 04:30N 59°43' E 019°04'2 4.1
2018-Apr-15 04:00N 59°44' E 019°08'714.5
2018-Apr-15 03:30N 59°46' E 019°22'713.3
2018-Apr-15 03:00N 59°45' E 019°35'713.7
2018-Apr-15 02:30N 59°43' E 019°48'713.6
2018-Apr-15 02:00N 59°40' E 019°59'713.5
2018-Apr-15 01:30N 59°37' E 020°11'2614.5
2018-Apr-14 23:44N 59°31' E 021°01'415.9
2018-Apr-14 23:31N 59°30' E 021°07'815.9
2018-Apr-14 23:00N 59°28' E 021°23'816.0
2018-Apr-14 22:30N 59°26' E 021°38'815.9
2018-Apr-14 22:00N 59°24' E 021°53'4115.7
2018-Apr-14 19:24N 59°21' E 023°13'716.2
2018-Apr-14 18:59N 59°22' E 023°26'816.4
2018-Apr-14 18:29N 59°22' E 023°42'816.5
2018-Apr-14 18:00N 59°22' E 023°58'4 0.3
2018-Apr-14 05:19N 59°20' E 024°04'412.8
2018-Apr-14 05:00N 59°22' E 023°58'713.9
2018-Apr-14 04:30N 59°23' E 023°44'714.1
2018-Apr-14 04:01N 59°23' E 023°31'714.4
2018-Apr-14 03:31N 59°23' E 023°17'714.5
2018-Apr-14 03:01N 59°23' E 023°02'714.7
2018-Apr-14 02:30N 59°23' E 022°48'1114.9
2018-Apr-14 01:45N 59°24' E 022°26'415.6
2018-Apr-14 01:31N 59°25' E 022°19'815.3
2018-Apr-14 01:00N 59°27' E 022°04'815.5
2018-Apr-14 00:31N 59°29' E 021°50'815.5
2018-Apr-14 00:00N 59°31' E 021°35'815.7
2018-Apr-13 23:30N 59°34' E 021°20'815.9
2018-Apr-13 23:01N 59°36' E 021°05'1315.9
2018-Apr-13 22:11N 59°39' E 020°40'315.9
2018-Apr-13 22:01N 59°40' E 020°35'815.8
2018-Apr-13 21:29N 59°44' E 020°21'1115.9
2018-Apr-13 20:48N 59°45' E 019°59'515.8
2018-Apr-13 20:29N 59°45' E 019°49'816.0
2018-Apr-13 20:00N 59°45' E 019°34'815.7
2018-Apr-13 19:30N 59°45' E 019°18'714.3
2018-Apr-13 19:01N 59°43' E 019°05'0 0.7
2018-Apr-13 18:29N 59°43' E 019°04'0 0.0
2018-Apr-13 17:59N 59°43' E 019°04'0 0.0
2018-Apr-13 17:29N 59°43' E 019°04'0 0.0
2018-Apr-13 16:59N 59°43' E 019°04'0 0.0
2018-Apr-13 16:29N 59°43' E 019°04'  

Dump ship's entire track history